sensor_id;sensor_type;location;lat;lon;timestamp;P1;durP1;ratioP1;P2;durP2;ratioP2
15905;SDS011;8051;50.820;4.884;2023-01-24T00:00:39;39.00;;;35.20;;
15905;SDS011;8051;50.820;4.884;2023-01-24T00:03:07;43.47;;;39.13;;
15905;SDS011;8051;50.820;4.884;2023-01-24T00:05:37;45.73;;;41.10;;
15905;SDS011;8051;50.820;4.884;2023-01-24T00:08:04;41.70;;;37.50;;
15905;SDS011;8051;50.820;4.884;2023-01-24T00:10:32;43.63;;;39.20;;
15905;SDS011;8051;50.820;4.884;2023-01-24T00:13:01;41.87;;;37.73;;
15905;SDS011;8051;50.820;4.884;2023-01-24T00:15:28;43.40;;;39.10;;
15905;SDS011;8051;50.820;4.884;2023-01-24T00:17:56;42.17;;;37.97;;
15905;SDS011;8051;50.820;4.884;2023-01-24T00:20:23;39.50;;;35.83;;
15905;SDS011;8051;50.820;4.884;2023-01-24T00:22:51;41.87;;;37.77;;
15905;SDS011;8051;50.820;4.884;2023-01-24T00:25:19;40.10;;;36.20;;
15905;SDS011;8051;50.820;4.884;2023-01-24T00:27:46;44.47;;;39.90;;
15905;SDS011;8051;50.820;4.884;2023-01-24T00:30:15;42.33;;;38.30;;
15905;SDS011;8051;50.820;4.884;2023-01-24T00:32:43;44.30;;;39.93;;
15905;SDS011;8051;50.820;4.884;2023-01-24T00:35:10;42.17;;;37.97;;
15905;SDS011;8051;50.820;4.884;2023-01-24T00:37:38;41.97;;;37.87;;
15905;SDS011;8051;50.820;4.884;2023-01-24T00:40:06;42.87;;;38.60;;
15905;SDS011;8051;50.820;4.884;2023-01-24T00:42:34;42.90;;;38.77;;
15905;SDS011;8051;50.820;4.884;2023-01-24T00:45:02;43.50;;;39.17;;
15905;SDS011;8051;50.820;4.884;2023-01-24T00:47:31;45.27;;;41.03;;
15905;SDS011;8051;50.820;4.884;2023-01-24T00:49:58;46.40;;;42.03;;
15905;SDS011;8051;50.820;4.884;2023-01-24T00:52:26;43.80;;;39.30;;
15905;SDS011;8051;50.820;4.884;2023-01-24T00:54:53;44.77;;;40.30;;
15905;SDS011;8051;50.820;4.884;2023-01-24T00:57:21;44.67;;;40.37;;
15905;SDS011;8051;50.820;4.884;2023-01-24T00:59:49;46.53;;;41.80;;
15905;SDS011;8051;50.820;4.884;2023-01-24T01:02:16;49.80;;;44.80;;
15905;SDS011;8051;50.820;4.884;2023-01-24T01:04:46;48.67;;;43.57;;
15905;SDS011;8051;50.820;4.884;2023-01-24T01:07:13;46.73;;;42.00;;
15905;SDS011;8051;50.820;4.884;2023-01-24T01:09:41;44.43;;;40.00;;
15905;SDS011;8051;50.820;4.884;2023-01-24T01:12:08;50.83;;;45.03;;
15905;SDS011;8051;50.820;4.884;2023-01-24T01:14:36;47.43;;;42.63;;
15905;SDS011;8051;50.820;4.884;2023-01-24T01:17:03;44.37;;;39.83;;
15905;SDS011;8051;50.820;4.884;2023-01-24T01:19:31;47.53;;;42.93;;
15905;SDS011;8051;50.820;4.884;2023-01-24T01:21:59;50.13;;;44.83;;
15905;SDS011;8051;50.820;4.884;2023-01-24T01:24:27;46.40;;;41.73;;
15905;SDS011;8051;50.820;4.884;2023-01-24T01:26:54;48.77;;;43.87;;
15905;SDS011;8051;50.820;4.884;2023-01-24T01:29:22;47.83;;;43.10;;
15905;SDS011;8051;50.820;4.884;2023-01-24T01:31:50;48.43;;;43.73;;
15905;SDS011;8051;50.820;4.884;2023-01-24T01:34:17;44.90;;;40.17;;
15905;SDS011;8051;50.820;4.884;2023-01-24T01:36:45;47.37;;;42.57;;
15905;SDS011;8051;50.820;4.884;2023-01-24T01:39:14;49.83;;;44.73;;
15905;SDS011;8051;50.820;4.884;2023-01-24T01:41:41;48.97;;;43.97;;
15905;SDS011;8051;50.820;4.884;2023-01-24T01:44:16;51.33;;;45.93;;
15905;SDS011;8051;50.820;4.884;2023-01-24T01:47:02;50.27;;;45.33;;
15905;SDS011;8051;50.820;4.884;2023-01-24T01:49:31;47.83;;;43.03;;
15905;SDS011;8051;50.820;4.884;2023-01-24T01:52:00;49.40;;;44.50;;
15905;SDS011;8051;50.820;4.884;2023-01-24T01:54:32;49.97;;;44.97;;
15905;SDS011;8051;50.820;4.884;2023-01-24T01:57:03;49.20;;;44.30;;
15905;SDS011;8051;50.820;4.884;2023-01-24T01:59:35;46.77;;;42.00;;
15905;SDS011;8051;50.820;4.884;2023-01-24T02:02:05;47.13;;;42.43;;
15905;SDS011;8051;50.820;4.884;2023-01-24T02:04:34;49.50;;;44.40;;
15905;SDS011;8051;50.820;4.884;2023-01-24T02:07:04;50.03;;;45.00;;
15905;SDS011;8051;50.820;4.884;2023-01-24T02:09:36;48.53;;;43.43;;
15905;SDS011;8051;50.820;4.884;2023-01-24T02:12:09;49.50;;;44.33;;
15905;SDS011;8051;50.820;4.884;2023-01-24T02:14:39;47.67;;;43.03;;
15905;SDS011;8051;50.820;4.884;2023-01-24T02:17:24;48.00;;;43.27;;
15905;SDS011;8051;50.820;4.884;2023-01-24T02:20:00;47.90;;;43.13;;
15905;SDS011;8051;50.820;4.884;2023-01-24T02:22:36;46.73;;;41.97;;
15905;SDS011;8051;50.820;4.884;2023-01-24T02:25:13;46.63;;;42.03;;
15905;SDS011;8051;50.820;4.884;2023-01-24T02:27:48;47.43;;;42.60;;
15905;SDS011;8051;50.820;4.884;2023-01-24T02:30:16;47.70;;;42.70;;
15905;SDS011;8051;50.820;4.884;2023-01-24T02:32:44;47.03;;;42.33;;
15905;SDS011;8051;50.820;4.884;2023-01-24T02:35:25;49.00;;;44.20;;
15905;SDS011;8051;50.820;4.884;2023-01-24T02:37:55;45.47;;;40.87;;
15905;SDS011;8051;50.820;4.884;2023-01-24T02:40:24;45.17;;;40.77;;
15905;SDS011;8051;50.820;4.884;2023-01-24T02:42:55;45.80;;;41.10;;
15905;SDS011;8051;50.820;4.884;2023-01-24T02:45:26;46.90;;;42.20;;
15905;SDS011;8051;50.820;4.884;2023-01-24T02:47:54;45.87;;;41.07;;
15905;SDS011;8051;50.820;4.884;2023-01-24T02:50:23;45.87;;;41.10;;
15905;SDS011;8051;50.820;4.884;2023-01-24T02:52:52;45.37;;;40.83;;
15905;SDS011;8051;50.820;4.884;2023-01-24T02:55:37;49.77;;;44.80;;
15905;SDS011;8051;50.820;4.884;2023-01-24T02:58:26;46.60;;;41.77;;
15905;SDS011;8051;50.820;4.884;2023-01-24T03:00:52;49.60;;;44.53;;
15905;SDS011;8051;50.820;4.884;2023-01-24T03:03:20;48.43;;;43.23;;
15905;SDS011;8051;50.820;4.884;2023-01-24T03:05:48;48.93;;;44.00;;
15905;SDS011;8051;50.820;4.884;2023-01-24T03:08:22;47.73;;;42.50;;
15905;SDS011;8051;50.820;4.884;2023-01-24T03:10:51;46.90;;;42.13;;
15905;SDS011;8051;50.820;4.884;2023-01-24T03:13:19;45.07;;;40.67;;
15905;SDS011;8051;50.820;4.884;2023-01-24T03:16:06;44.83;;;40.40;;
15905;SDS011;8051;50.820;4.884;2023-01-24T03:18:51;40.63;;;36.83;;
15905;SDS011;8051;50.820;4.884;2023-01-24T03:21:36;39.17;;;35.57;;
15905;SDS011;8051;50.820;4.884;2023-01-24T03:24:22;40.70;;;36.77;;
15905;SDS011;8051;50.820;4.884;2023-01-24T03:27:07;42.40;;;38.30;;
15905;SDS011;8051;50.820;4.884;2023-01-24T03:29:52;38.40;;;34.70;;
15905;SDS011;8051;50.820;4.884;2023-01-24T03:32:38;40.70;;;36.77;;
15905;SDS011;8051;50.820;4.884;2023-01-24T03:35:23;44.17;;;39.80;;
15905;SDS011;8051;50.820;4.884;2023-01-24T03:37:51;43.53;;;39.07;;
15905;SDS011;8051;50.820;4.884;2023-01-24T03:40:35;45.17;;;40.70;;
15905;SDS011;8051;50.820;4.884;2023-01-24T03:43:03;45.70;;;41.10;;
15905;SDS011;8051;50.820;4.884;2023-01-24T03:45:31;42.30;;;38.43;;
15905;SDS011;8051;50.820;4.884;2023-01-24T03:48:02;43.93;;;39.60;;
15905;SDS011;8051;50.820;4.884;2023-01-24T03:50:35;39.37;;;35.57;;
15905;SDS011;8051;50.820;4.884;2023-01-24T03:53:21;42.23;;;38.23;;
15905;SDS011;8051;50.820;4.884;2023-01-24T03:55:51;41.77;;;37.77;;
15905;SDS011;8051;50.820;4.884;2023-01-24T03:58:19;42.50;;;38.13;;
15905;SDS011;8051;50.820;4.884;2023-01-24T04:00:47;43.93;;;39.83;;
15905;SDS011;8051;50.820;4.884;2023-01-24T04:03:16;45.40;;;41.00;;
15905;SDS011;8051;50.820;4.884;2023-01-24T04:05:45;44.97;;;40.43;;
15905;SDS011;8051;50.820;4.884;2023-01-24T04:08:13;42.90;;;38.50;;
15905;SDS011;8051;50.820;4.884;2023-01-24T04:10:41;45.50;;;40.97;;
15905;SDS011;8051;50.820;4.884;2023-01-24T04:13:08;42.37;;;38.40;;
15905;SDS011;8051;50.820;4.884;2023-01-24T04:15:37;44.40;;;40.17;;
15905;SDS011;8051;50.820;4.884;2023-01-24T04:18:05;43.87;;;39.50;;
15905;SDS011;8051;50.820;4.884;2023-01-24T04:20:35;43.77;;;39.47;;
15905;SDS011;8051;50.820;4.884;2023-01-24T04:23:03;45.50;;;41.00;;
15905;SDS011;8051;50.820;4.884;2023-01-24T04:25:32;45.47;;;40.97;;
15905;SDS011;8051;50.820;4.884;2023-01-24T04:28:00;45.03;;;40.43;;
15905;SDS011;8051;50.820;4.884;2023-01-24T04:30:28;44.73;;;40.43;;
15905;SDS011;8051;50.820;4.884;2023-01-24T04:32:56;47.43;;;42.43;;
15905;SDS011;8051;50.820;4.884;2023-01-24T04:35:24;47.87;;;43.10;;
15905;SDS011;8051;50.820;4.884;2023-01-24T04:37:55;47.00;;;42.47;;
15905;SDS011;8051;50.820;4.884;2023-01-24T04:40:25;46.90;;;42.20;;
15905;SDS011;8051;50.820;4.884;2023-01-24T04:42:54;48.57;;;43.73;;
15905;SDS011;8051;50.820;4.884;2023-01-24T04:45:22;49.43;;;44.47;;
15905;SDS011;8051;50.820;4.884;2023-01-24T04:47:49;50.63;;;45.67;;
15905;SDS011;8051;50.820;4.884;2023-01-24T04:50:17;51.63;;;46.17;;
15905;SDS011;8051;50.820;4.884;2023-01-24T04:52:44;51.13;;;45.87;;
15905;SDS011;8051;50.820;4.884;2023-01-24T04:55:13;48.90;;;43.73;;
15905;SDS011;8051;50.820;4.884;2023-01-24T04:57:41;50.30;;;45.27;;
15905;SDS011;8051;50.820;4.884;2023-01-24T05:00:09;48.70;;;43.67;;
15905;SDS011;8051;50.820;4.884;2023-01-24T05:02:37;49.00;;;43.93;;
15905;SDS011;8051;50.820;4.884;2023-01-24T05:05:05;48.20;;;43.30;;
15905;SDS011;8051;50.820;4.884;2023-01-24T05:07:33;47.63;;;42.77;;
15905;SDS011;8051;50.820;4.884;2023-01-24T05:10:00;49.10;;;44.07;;
15905;SDS011;8051;50.820;4.884;2023-01-24T05:12:29;47.17;;;42.20;;
15905;SDS011;8051;50.820;4.884;2023-01-24T05:14:57;47.57;;;42.73;;
15905;SDS011;8051;50.820;4.884;2023-01-24T05:17:24;47.70;;;43.10;;
15905;SDS011;8051;50.820;4.884;2023-01-24T05:19:51;47.13;;;42.57;;
15905;SDS011;8051;50.820;4.884;2023-01-24T05:22:19;42.10;;;38.17;;
15905;SDS011;8051;50.820;4.884;2023-01-24T05:24:46;46.23;;;41.53;;
15905;SDS011;8051;50.820;4.884;2023-01-24T05:27:14;44.73;;;40.43;;
15905;SDS011;8051;50.820;4.884;2023-01-24T05:29:43;46.20;;;42.00;;
15905;SDS011;8051;50.820;4.884;2023-01-24T05:32:12;45.57;;;41.00;;
15905;SDS011;8051;50.820;4.884;2023-01-24T05:34:40;44.57;;;40.20;;
15905;SDS011;8051;50.820;4.884;2023-01-24T05:37:07;48.90;;;44.23;;
15905;SDS011;8051;50.820;4.884;2023-01-24T05:39:34;49.07;;;44.27;;
15905;SDS011;8051;50.820;4.884;2023-01-24T05:42:02;45.27;;;40.83;;
15905;SDS011;8051;50.820;4.884;2023-01-24T05:44:29;47.87;;;43.03;;
15905;SDS011;8051;50.820;4.884;2023-01-24T05:46:58;45.77;;;41.47;;
15905;SDS011;8051;50.820;4.884;2023-01-24T05:49:26;43.07;;;39.07;;
15905;SDS011;8051;50.820;4.884;2023-01-24T05:51:53;45.40;;;40.83;;
15905;SDS011;8051;50.820;4.884;2023-01-24T05:54:21;47.87;;;43.23;;
15905;SDS011;8051;50.820;4.884;2023-01-24T05:56:48;45.23;;;40.90;;
15905;SDS011;8051;50.820;4.884;2023-01-24T05:59:16;42.93;;;38.73;;
15905;SDS011;8051;50.820;4.884;2023-01-24T06:01:43;48.80;;;43.90;;
15905;SDS011;8051;50.820;4.884;2023-01-24T06:04:12;45.63;;;41.07;;
15905;SDS011;8051;50.820;4.884;2023-01-24T06:06:40;43.90;;;39.77;;
15905;SDS011;8051;50.820;4.884;2023-01-24T06:09:08;45.03;;;40.30;;
15905;SDS011;8051;50.820;4.884;2023-01-24T06:11:35;47.30;;;42.60;;
15905;SDS011;8051;50.820;4.884;2023-01-24T06:14:03;49.43;;;44.40;;
15905;SDS011;8051;50.820;4.884;2023-01-24T06:16:30;48.70;;;43.77;;
15905;SDS011;8051;50.820;4.884;2023-01-24T06:18:58;50.03;;;44.93;;
15905;SDS011;8051;50.820;4.884;2023-01-24T06:21:35;50.13;;;45.13;;
15905;SDS011;8051;50.820;4.884;2023-01-24T06:24:13;48.67;;;43.90;;
15905;SDS011;8051;50.820;4.884;2023-01-24T06:26:43;48.67;;;43.80;;
15905;SDS011;8051;50.820;4.884;2023-01-24T06:29:12;51.03;;;46.03;;
15905;SDS011;8051;50.820;4.884;2023-01-24T06:31:43;48.37;;;43.67;;
15905;SDS011;8051;50.820;4.884;2023-01-24T06:34:20;48.43;;;43.63;;
15905;SDS011;8051;50.820;4.884;2023-01-24T06:37:02;48.23;;;43.30;;
15905;SDS011;8051;50.820;4.884;2023-01-24T06:39:38;47.43;;;42.97;;
15905;SDS011;8051;50.820;4.884;2023-01-24T06:42:07;49.53;;;44.17;;
15905;SDS011;8051;50.820;4.884;2023-01-24T06:44:36;49.43;;;44.23;;
15905;SDS011;8051;50.820;4.884;2023-01-24T06:47:07;47.43;;;42.90;;
15905;SDS011;8051;50.820;4.884;2023-01-24T06:49:36;53.50;;;48.10;;
15905;SDS011;8051;50.820;4.884;2023-01-24T06:52:05;53.53;;;47.83;;
15905;SDS011;8051;50.820;4.884;2023-01-24T06:54:33;51.50;;;46.27;;
15905;SDS011;8051;50.820;4.884;2023-01-24T06:57:01;49.13;;;43.80;;
15905;SDS011;8051;50.820;4.884;2023-01-24T06:59:29;47.87;;;43.27;;
15905;SDS011;8051;50.820;4.884;2023-01-24T07:01:57;50.20;;;45.10;;
15905;SDS011;8051;50.820;4.884;2023-01-24T07:04:24;44.37;;;40.10;;
15905;SDS011;8051;50.820;4.884;2023-01-24T07:06:52;47.20;;;42.70;;
15905;SDS011;8051;50.820;4.884;2023-01-24T07:09:21;47.07;;;42.43;;
15905;SDS011;8051;50.820;4.884;2023-01-24T07:11:49;48.10;;;43.33;;
15905;SDS011;8051;50.820;4.884;2023-01-24T07:14:20;47.77;;;42.97;;
15905;SDS011;8051;50.820;4.884;2023-01-24T07:16:48;46.60;;;42.10;;
15905;SDS011;8051;50.820;4.884;2023-01-24T07:19:16;47.03;;;42.60;;
15905;SDS011;8051;50.820;4.884;2023-01-24T07:21:47;49.03;;;44.33;;
15905;SDS011;8051;50.820;4.884;2023-01-24T07:24:15;47.83;;;43.30;;
15905;SDS011;8051;50.820;4.884;2023-01-24T07:26:46;44.57;;;40.17;;
15905;SDS011;8051;50.820;4.884;2023-01-24T07:29:16;44.90;;;40.80;;
15905;SDS011;8051;50.820;4.884;2023-01-24T07:31:43;45.93;;;41.80;;
15905;SDS011;8051;50.820;4.884;2023-01-24T07:34:12;43.23;;;39.33;;
15905;SDS011;8051;50.820;4.884;2023-01-24T07:36:41;42.67;;;38.80;;
15905;SDS011;8051;50.820;4.884;2023-01-24T07:39:08;44.43;;;40.53;;
15905;SDS011;8051;50.820;4.884;2023-01-24T07:41:36;44.67;;;40.47;;
15905;SDS011;8051;50.820;4.884;2023-01-24T07:44:05;45.17;;;40.97;;
15905;SDS011;8051;50.820;4.884;2023-01-24T07:46:33;41.63;;;37.80;;
15905;SDS011;8051;50.820;4.884;2023-01-24T07:49:00;42.67;;;38.73;;
15905;SDS011;8051;50.820;4.884;2023-01-24T07:51:28;43.13;;;39.17;;
15905;SDS011;8051;50.820;4.884;2023-01-24T07:53:56;43.23;;;39.23;;
15905;SDS011;8051;50.820;4.884;2023-01-24T07:56:23;41.43;;;37.73;;
15905;SDS011;8051;50.820;4.884;2023-01-24T07:58:51;42.03;;;38.23;;
15905;SDS011;8051;50.820;4.884;2023-01-24T08:01:21;38.97;;;35.47;;
15905;SDS011;8051;50.820;4.884;2023-01-24T08:03:49;39.33;;;35.90;;
15905;SDS011;8051;50.820;4.884;2023-01-24T08:06:19;40.07;;;36.30;;
15905;SDS011;8051;50.820;4.884;2023-01-24T08:08:47;40.50;;;36.87;;
15905;SDS011;8051;50.820;4.884;2023-01-24T08:11:15;41.63;;;37.83;;
15905;SDS011;8051;50.820;4.884;2023-01-24T08:13:43;42.07;;;38.27;;
15905;SDS011;8051;50.820;4.884;2023-01-24T08:16:10;41.00;;;37.07;;
15905;SDS011;8051;50.820;4.884;2023-01-24T08:18:40;41.43;;;37.87;;
15905;SDS011;8051;50.820;4.884;2023-01-24T08:21:08;42.00;;;38.30;;
15905;SDS011;8051;50.820;4.884;2023-01-24T08:23:36;39.00;;;35.40;;
15905;SDS011;8051;50.820;4.884;2023-01-24T08:26:04;37.50;;;34.20;;
15905;SDS011;8051;50.820;4.884;2023-01-24T08:28:32;37.97;;;34.70;;
15905;SDS011;8051;50.820;4.884;2023-01-24T08:31:00;38.73;;;35.13;;
15905;SDS011;8051;50.820;4.884;2023-01-24T08:33:28;37.60;;;34.40;;
15905;SDS011;8051;50.820;4.884;2023-01-24T08:35:57;40.03;;;36.33;;
15905;SDS011;8051;50.820;4.884;2023-01-24T08:38:25;35.93;;;33.00;;
15905;SDS011;8051;50.820;4.884;2023-01-24T08:40:52;38.97;;;35.47;;
15905;SDS011;8051;50.820;4.884;2023-01-24T08:43:20;40.63;;;37.13;;
15905;SDS011;8051;50.820;4.884;2023-01-24T08:45:48;39.57;;;36.10;;
15905;SDS011;8051;50.820;4.884;2023-01-24T08:48:19;41.47;;;37.57;;
15905;SDS011;8051;50.820;4.884;2023-01-24T08:50:47;39.70;;;36.33;;
15905;SDS011;8051;50.820;4.884;2023-01-24T08:53:15;38.80;;;35.40;;
15905;SDS011;8051;50.820;4.884;2023-01-24T08:55:43;41.33;;;37.73;;
15905;SDS011;8051;50.820;4.884;2023-01-24T08:58:10;42.63;;;38.80;;
15905;SDS011;8051;50.820;4.884;2023-01-24T09:00:38;41.63;;;38.03;;
15905;SDS011;8051;50.820;4.884;2023-01-24T09:03:05;40.13;;;36.53;;
15905;SDS011;8051;50.820;4.884;2023-01-24T09:05:33;40.50;;;36.97;;
15905;SDS011;8051;50.820;4.884;2023-01-24T09:08:01;38.60;;;35.10;;
15905;SDS011;8051;50.820;4.884;2023-01-24T09:10:30;39.07;;;35.23;;
15905;SDS011;8051;50.820;4.884;2023-01-24T09:12:58;39.40;;;36.00;;
15905;SDS011;8051;50.820;4.884;2023-01-24T09:15:26;39.13;;;35.83;;
15905;SDS011;8051;50.820;4.884;2023-01-24T09:17:54;39.10;;;35.60;;
15905;SDS011;8051;50.820;4.884;2023-01-24T09:20:21;37.87;;;34.67;;
15905;SDS011;8051;50.820;4.884;2023-01-24T09:22:49;39.63;;;36.20;;
15905;SDS011;8051;50.820;4.884;2023-01-24T09:25:16;37.03;;;33.93;;
15905;SDS011;8051;50.820;4.884;2023-01-24T09:27:49;37.37;;;34.17;;
15905;SDS011;8051;50.820;4.884;2023-01-24T09:30:20;35.37;;;32.37;;
15905;SDS011;8051;50.820;4.884;2023-01-24T09:32:48;36.37;;;33.40;;
15905;SDS011;8051;50.820;4.884;2023-01-24T09:35:16;34.97;;;32.20;;
15905;SDS011;8051;50.820;4.884;2023-01-24T09:37:43;38.17;;;34.87;;
15905;SDS011;8051;50.820;4.884;2023-01-24T09:40:15;34.87;;;32.10;;
15905;SDS011;8051;50.820;4.884;2023-01-24T09:42:51;37.43;;;34.23;;
15905;SDS011;8051;50.820;4.884;2023-01-24T09:45:25;36.97;;;33.90;;
15905;SDS011;8051;50.820;4.884;2023-01-24T09:47:57;39.13;;;35.73;;
15905;SDS011;8051;50.820;4.884;2023-01-24T09:50:27;39.20;;;35.90;;
15905;SDS011;8051;50.820;4.884;2023-01-24T09:53:01;37.83;;;34.73;;
15905;SDS011;8051;50.820;4.884;2023-01-24T09:55:29;38.07;;;34.77;;
15905;SDS011;8051;50.820;4.884;2023-01-24T09:58:03;36.70;;;33.60;;
15905;SDS011;8051;50.820;4.884;2023-01-24T10:00:44;36.17;;;33.27;;
15905;SDS011;8051;50.820;4.884;2023-01-24T10:03:14;36.17;;;33.17;;
15905;SDS011;8051;50.820;4.884;2023-01-24T10:05:46;35.77;;;32.87;;
15905;SDS011;8051;50.820;4.884;2023-01-24T10:08:18;35.97;;;33.00;;
15905;SDS011;8051;50.820;4.884;2023-01-24T10:10:50;35.17;;;32.27;;
15905;SDS011;8051;50.820;4.884;2023-01-24T10:13:29;35.80;;;32.70;;
15905;SDS011;8051;50.820;4.884;2023-01-24T10:16:12;34.77;;;31.87;;
15905;SDS011;8051;50.820;4.884;2023-01-24T10:18:46;37.47;;;34.37;;
15905;SDS011;8051;50.820;4.884;2023-01-24T10:21:32;36.87;;;33.67;;
15905;SDS011;8051;50.820;4.884;2023-01-24T10:24:14;37.50;;;34.40;;
15905;SDS011;8051;50.820;4.884;2023-01-24T10:26:45;39.30;;;35.90;;
15905;SDS011;8051;50.820;4.884;2023-01-24T10:29:16;35.97;;;33.07;;
15905;SDS011;8051;50.820;4.884;2023-01-24T10:31:49;34.47;;;31.60;;
15905;SDS011;8051;50.820;4.884;2023-01-24T10:34:24;33.33;;;30.70;;
15905;SDS011;8051;50.820;4.884;2023-01-24T10:36:56;35.83;;;32.83;;
15905;SDS011;8051;50.820;4.884;2023-01-24T10:39:27;34.10;;;31.40;;
15905;SDS011;8051;50.820;4.884;2023-01-24T10:41:54;34.87;;;32.03;;
15905;SDS011;8051;50.820;4.884;2023-01-24T10:44:25;33.10;;;30.40;;
15905;SDS011;8051;50.820;4.884;2023-01-24T10:46:59;35.40;;;32.43;;
15905;SDS011;8051;50.820;4.884;2023-01-24T10:49:57;38.03;;;34.80;;
15905;SDS011;8051;50.820;4.884;2023-01-24T10:52:25;36.40;;;33.50;;
15905;SDS011;8051;50.820;4.884;2023-01-24T10:54:54;34.53;;;31.67;;
15905;SDS011;8051;50.820;4.884;2023-01-24T10:57:38;33.93;;;31.17;;
15905;SDS011;8051;50.820;4.884;2023-01-24T11:02:59;35.10;;;32.30;;
15905;SDS011;8051;50.820;4.884;2023-01-24T11:05:35;33.00;;;30.30;;
15905;SDS011;8051;50.820;4.884;2023-01-24T11:08:05;33.90;;;31.20;;
15905;SDS011;8051;50.820;4.884;2023-01-24T11:10:41;34.50;;;31.70;;
15905;SDS011;8051;50.820;4.884;2023-01-24T11:13:21;33.37;;;30.70;;
15905;SDS011;8051;50.820;4.884;2023-01-24T11:15:55;35.03;;;32.13;;
15905;SDS011;8051;50.820;4.884;2023-01-24T11:18:28;34.33;;;31.57;;
15905;SDS011;8051;50.820;4.884;2023-01-24T11:21:07;33.20;;;30.60;;
15905;SDS011;8051;50.820;4.884;2023-01-24T11:23:36;33.53;;;30.93;;
15905;SDS011;8051;50.820;4.884;2023-01-24T11:26:05;33.93;;;31.23;;
15905;SDS011;8051;50.820;4.884;2023-01-24T11:28:48;35.17;;;32.20;;
15905;SDS011;8051;50.820;4.884;2023-01-24T11:31:25;34.93;;;31.93;;
15905;SDS011;8051;50.820;4.884;2023-01-24T11:34:14;33.47;;;30.90;;
15905;SDS011;8051;50.820;4.884;2023-01-24T11:36:55;33.83;;;31.13;;
15905;SDS011;8051;50.820;4.884;2023-01-24T11:39:34;34.97;;;32.07;;
15905;SDS011;8051;50.820;4.884;2023-01-24T11:42:11;34.87;;;31.97;;
15905;SDS011;8051;50.820;4.884;2023-01-24T11:47:53;35.07;;;32.10;;
15905;SDS011;8051;50.820;4.884;2023-01-24T11:50:32;34.47;;;31.47;;
15905;SDS011;8051;50.820;4.884;2023-01-24T11:53:16;34.63;;;31.70;;
15905;SDS011;8051;50.820;4.884;2023-01-24T11:56:03;34.97;;;32.07;;
15905;SDS011;8051;50.820;4.884;2023-01-24T11:58:42;34.97;;;32.17;;
15905;SDS011;8051;50.820;4.884;2023-01-24T12:01:20;33.53;;;30.67;;
15905;SDS011;8051;50.820;4.884;2023-01-24T12:06:59;34.60;;;31.60;;
15905;SDS011;8051;50.820;4.884;2023-01-24T12:09:29;34.43;;;31.63;;
15905;SDS011;8051;50.820;4.884;2023-01-24T12:12:05;33.47;;;30.77;;
15905;SDS011;8051;50.820;4.884;2023-01-24T12:14:51;34.60;;;31.90;;
15905;SDS011;8051;50.820;4.884;2023-01-24T12:17:32;33.80;;;31.17;;
15905;SDS011;8051;50.820;4.884;2023-01-24T12:20:17;33.97;;;31.07;;
15905;SDS011;8051;50.820;4.884;2023-01-24T12:25:52;34.10;;;31.40;;
15905;SDS011;8051;50.820;4.884;2023-01-24T12:28:25;34.43;;;31.53;;
15905;SDS011;8051;50.820;4.884;2023-01-24T12:30:57;33.90;;;31.20;;
15905;SDS011;8051;50.820;4.884;2023-01-24T12:33:27;34.17;;;31.27;;
15905;SDS011;8051;50.820;4.884;2023-01-24T12:36:02;35.03;;;32.20;;
15905;SDS011;8051;50.820;4.884;2023-01-24T12:38:35;33.70;;;31.00;;
15905;SDS011;8051;50.820;4.884;2023-01-24T12:41:07;35.10;;;32.30;;
15905;SDS011;8051;50.820;4.884;2023-01-24T12:43:46;33.37;;;30.57;;
15905;SDS011;8051;50.820;4.884;2023-01-24T12:46:24;34.57;;;31.70;;
15905;SDS011;8051;50.820;4.884;2023-01-24T12:48:55;34.97;;;32.03;;
15905;SDS011;8051;50.820;4.884;2023-01-24T12:51:35;34.67;;;31.80;;
15905;SDS011;8051;50.820;4.884;2023-01-24T12:54:10;34.63;;;31.70;;
15905;SDS011;8051;50.820;4.884;2023-01-24T12:56:44;33.83;;;30.93;;
15905;SDS011;8051;50.820;4.884;2023-01-24T12:59:18;35.57;;;32.67;;
15905;SDS011;8051;50.820;4.884;2023-01-24T13:01:57;35.03;;;32.07;;
15905;SDS011;8051;50.820;4.884;2023-01-24T13:04:39;35.27;;;32.23;;
15905;SDS011;8051;50.820;4.884;2023-01-24T13:07:16;34.47;;;31.47;;
15905;SDS011;8051;50.820;4.884;2023-01-24T13:09:52;34.93;;;32.17;;
15905;SDS011;8051;50.820;4.884;2023-01-24T13:12:29;35.73;;;32.93;;
15905;SDS011;8051;50.820;4.884;2023-01-24T13:14:58;33.47;;;30.67;;
15905;SDS011;8051;50.820;4.884;2023-01-24T13:17:34;34.53;;;31.53;;
15905;SDS011;8051;50.820;4.884;2023-01-24T13:26:26;33.40;;;30.70;;
15905;SDS011;8051;50.820;4.884;2023-01-24T13:29:09;34.77;;;31.97;;
15905;SDS011;8051;50.820;4.884;2023-01-24T13:31:50;33.10;;;30.17;;
15905;SDS011;8051;50.820;4.884;2023-01-24T13:34:28;32.50;;;29.73;;
15905;SDS011;8051;50.820;4.884;2023-01-24T13:36:58;31.47;;;28.93;;
15905;SDS011;8051;50.820;4.884;2023-01-24T13:39:30;32.57;;;29.87;;
15905;SDS011;8051;50.820;4.884;2023-01-24T13:42:01;33.10;;;30.37;;
15905;SDS011;8051;50.820;4.884;2023-01-24T13:44:31;34.60;;;31.50;;
15905;SDS011;8051;50.820;4.884;2023-01-24T13:47:08;33.60;;;30.80;;
15905;SDS011;8051;50.820;4.884;2023-01-24T13:50:14;32.53;;;29.80;;
15905;SDS011;8051;50.820;4.884;2023-01-24T13:52:44;33.07;;;29.97;;
15905;SDS011;8051;50.820;4.884;2023-01-24T13:58:29;31.70;;;29.13;;
15905;SDS011;8051;50.820;4.884;2023-01-24T14:00:59;33.00;;;29.90;;
15905;SDS011;8051;50.820;4.884;2023-01-24T14:03:33;32.70;;;29.87;;
15905;SDS011;8051;50.820;4.884;2023-01-24T14:06:04;33.83;;;31.03;;
15905;SDS011;8051;50.820;4.884;2023-01-24T14:08:45;34.70;;;31.60;;
15905;SDS011;8051;50.820;4.884;2023-01-24T14:11:30;33.00;;;30.20;;
15905;SDS011;8051;50.820;4.884;2023-01-24T14:23:17;37.20;;;34.00;;
15905;SDS011;8051;50.820;4.884;2023-01-24T14:25:51;35.43;;;32.43;;
15905;SDS011;8051;50.820;4.884;2023-01-24T14:28:30;36.20;;;32.83;;
15905;SDS011;8051;50.820;4.884;2023-01-24T14:31:05;35.70;;;32.70;;
15905;SDS011;8051;50.820;4.884;2023-01-24T14:33:44;37.10;;;33.90;;
15905;SDS011;8051;50.820;4.884;2023-01-24T14:36:27;36.97;;;33.73;;
15905;SDS011;8051;50.820;4.884;2023-01-24T14:41:55;35.73;;;32.63;;
15905;SDS011;8051;50.820;4.884;2023-01-24T14:44:25;35.73;;;32.53;;
15905;SDS011;8051;50.820;4.884;2023-01-24T14:46:56;37.40;;;34.20;;
15905;SDS011;8051;50.820;4.884;2023-01-24T14:49:28;37.47;;;34.27;;
15905;SDS011;8051;50.820;4.884;2023-01-24T14:51:58;36.20;;;33.07;;
15905;SDS011;8051;50.820;4.884;2023-01-24T14:54:25;36.67;;;33.47;;
15905;SDS011;8051;50.820;4.884;2023-01-24T14:56:53;36.63;;;33.53;;
15905;SDS011;8051;50.820;4.884;2023-01-24T14:59:21;37.87;;;34.70;;
15905;SDS011;8051;50.820;4.884;2023-01-24T15:01:49;38.70;;;35.47;;
15905;SDS011;8051;50.820;4.884;2023-01-24T15:04:22;37.50;;;34.33;;
15905;SDS011;8051;50.820;4.884;2023-01-24T15:07:10;37.90;;;34.60;;
15905;SDS011;8051;50.820;4.884;2023-01-24T15:09:38;37.63;;;34.43;;
15905;SDS011;8051;50.820;4.884;2023-01-24T15:12:13;38.57;;;35.17;;
15905;SDS011;8051;50.820;4.884;2023-01-24T15:14:49;39.40;;;35.40;;
15905;SDS011;8051;50.820;4.884;2023-01-24T15:17:18;39.03;;;35.63;;
15905;SDS011;8051;50.820;4.884;2023-01-24T15:19:49;37.30;;;33.70;;
15905;SDS011;8051;50.820;4.884;2023-01-24T15:22:22;38.23;;;34.83;;
15905;SDS011;8051;50.820;4.884;2023-01-24T15:24:51;36.77;;;33.77;;
15905;SDS011;8051;50.820;4.884;2023-01-24T15:27:21;37.23;;;33.93;;
15905;SDS011;8051;50.820;4.884;2023-01-24T15:30:09;38.83;;;35.47;;
15905;SDS011;8051;50.820;4.884;2023-01-24T15:32:44;37.60;;;34.27;;